sensor_id;sensor_type;location;lat;lon;timestamp;P1;durP1;ratioP1;P2;durP2;ratioP2
32639;SDS011;19049;52.524;11.468;2023-02-28T00:00:35;3.00;;;1.23;;
32639;SDS011;19049;52.524;11.468;2023-02-28T00:03:02;1.63;;;1.00;;
32639;SDS011;19049;52.524;11.468;2023-02-28T00:05:28;1.53;;;1.00;;
32639;SDS011;19049;52.524;11.468;2023-02-28T00:07:54;1.60;;;1.13;;
32639;SDS011;19049;52.524;11.468;2023-02-28T00:10:22;1.20;;;0.90;;
32639;SDS011;19049;52.524;11.468;2023-02-28T00:12:50;2.40;;;0.80;;
32639;SDS011;19049;52.524;11.468;2023-02-28T00:15:17;1.08;;;0.82;;
32639;SDS011;19049;52.524;11.468;2023-02-28T00:17:43;0.70;;;0.67;;
32639;SDS011;19049;52.524;11.468;2023-02-28T00:20:10;2.67;;;0.90;;
32639;SDS011;19049;52.524;11.468;2023-02-28T00:22:38;1.27;;;0.70;;
32639;SDS011;19049;52.524;11.468;2023-02-28T00:25:04;1.00;;;0.65;;
32639;SDS011;19049;52.524;11.468;2023-02-28T00:27:32;2.07;;;1.00;;
32639;SDS011;19049;52.524;11.468;2023-02-28T00:29:58;2.53;;;0.70;;
32639;SDS011;19049;52.524;11.468;2023-02-28T00:32:23;1.13;;;0.50;;
32639;SDS011;19049;52.524;11.468;2023-02-28T00:34:49;0.97;;;0.60;;
32639;SDS011;19049;52.524;11.468;2023-02-28T00:37:15;1.05;;;0.60;;
32639;SDS011;19049;52.524;11.468;2023-02-28T00:39:41;1.67;;;0.60;;
32639;SDS011;19049;52.524;11.468;2023-02-28T00:42:06;1.83;;;0.70;;
32639;SDS011;19049;52.524;11.468;2023-02-28T00:44:33;0.70;;;0.60;;
32639;SDS011;19049;52.524;11.468;2023-02-28T00:46:59;0.87;;;0.40;;
32639;SDS011;19049;52.524;11.468;2023-02-28T00:49:27;1.35;;;0.63;;
32639;SDS011;19049;52.524;11.468;2023-02-28T00:51:53;0.70;;;0.57;;
32639;SDS011;19049;52.524;11.468;2023-02-28T00:54:20;1.15;;;0.57;;
32639;SDS011;19049;52.524;11.468;2023-02-28T00:56:46;0.77;;;0.68;;
32639;SDS011;19049;52.524;11.468;2023-02-28T00:59:12;0.70;;;0.50;;
32639;SDS011;19049;52.524;11.468;2023-02-28T01:01:38;0.57;;;0.40;;
32639;SDS011;19049;52.524;11.468;2023-02-28T01:04:04;1.23;;;0.60;;
32639;SDS011;19049;52.524;11.468;2023-02-28T01:06:30;1.03;;;0.50;;
32639;SDS011;19049;52.524;11.468;2023-02-28T01:08:56;0.90;;;0.50;;
32639;SDS011;19049;52.524;11.468;2023-02-28T01:11:23;0.80;;;0.50;;
32639;SDS011;19049;52.524;11.468;2023-02-28T01:13:49;0.77;;;0.57;;
32639;SDS011;19049;52.524;11.468;2023-02-28T01:16:14;0.83;;;0.60;;
32639;SDS011;19049;52.524;11.468;2023-02-28T01:18:40;0.77;;;0.70;;
32639;SDS011;19049;52.524;11.468;2023-02-28T01:21:07;0.77;;;0.50;;
32639;SDS011;19049;52.524;11.468;2023-02-28T01:23:34;0.65;;;0.40;;
32639;SDS011;19049;52.524;11.468;2023-02-28T01:26:20;1.27;;;0.50;;
32639;SDS011;19049;52.524;11.468;2023-02-28T01:28:47;0.80;;;0.40;;
32639;SDS011;19049;52.524;11.468;2023-02-28T01:31:13;0.73;;;0.50;;
32639;SDS011;19049;52.524;11.468;2023-02-28T01:33:40;0.82;;;0.40;;
32639;SDS011;19049;52.524;11.468;2023-02-28T01:36:10;0.93;;;0.50;;
32639;SDS011;19049;52.524;11.468;2023-02-28T01:38:37;0.75;;;0.43;;
32639;SDS011;19049;52.524;11.468;2023-02-28T01:41:03;0.87;;;0.40;;
32639;SDS011;19049;52.524;11.468;2023-02-28T01:46:07;1.08;;;0.55;;
32639;SDS011;19049;52.524;11.468;2023-02-28T01:48:34;1.30;;;0.50;;
32639;SDS011;19049;52.524;11.468;2023-02-28T01:51:05;1.13;;;0.50;;
32639;SDS011;19049;52.524;11.468;2023-02-28T01:53:40;0.90;;;0.30;;
32639;SDS011;19049;52.524;11.468;2023-02-28T01:56:09;0.35;;;0.35;;
32639;SDS011;19049;52.524;11.468;2023-02-28T01:58:36;0.82;;;0.40;;
32639;SDS011;19049;52.524;11.468;2023-02-28T02:01:03;0.52;;;0.50;;
32639;SDS011;19049;52.524;11.468;2023-02-28T02:03:29;0.80;;;0.38;;
32639;SDS011;19049;52.524;11.468;2023-02-28T02:05:55;1.20;;;0.50;;
32639;SDS011;19049;52.524;11.468;2023-02-28T02:08:25;0.60;;;0.40;;
32639;SDS011;19049;52.524;11.468;2023-02-28T02:10:57;1.13;;;0.70;;
32639;SDS011;19049;52.524;11.468;2023-02-28T02:13:30;0.50;;;0.50;;
32639;SDS011;19049;52.524;11.468;2023-02-28T02:37:49;1.45;;;0.50;;
32639;SDS011;19049;52.524;11.468;2023-02-28T02:40:30;1.13;;;0.60;;
32639;SDS011;19049;52.524;11.468;2023-02-28T02:43:46;1.45;;;0.57;;
32639;SDS011;19049;52.524;11.468;2023-02-28T02:46:04;0.77;;;0.50;;
32639;SDS011;19049;52.524;11.468;2023-02-28T02:48:35;1.83;;;0.60;;
32639;SDS011;19049;52.524;11.468;2023-02-28T02:51:06;0.85;;;0.50;;
32639;SDS011;19049;52.524;11.468;2023-02-28T02:53:38;1.83;;;0.55;;
32639;SDS011;19049;52.524;11.468;2023-02-28T02:56:25;0.55;;;0.47;;
32639;SDS011;19049;52.524;11.468;2023-02-28T02:58:54;0.80;;;0.30;;
32639;SDS011;19049;52.524;11.468;2023-02-28T03:01:24;0.95;;;0.45;;
32639;SDS011;19049;52.524;11.468;2023-02-28T03:03:58;0.93;;;0.35;;
32639;SDS011;19049;52.524;11.468;2023-02-28T03:06:44;1.20;;;0.60;;
32639;SDS011;19049;52.524;11.468;2023-02-28T03:09:09;0.97;;;0.30;;
32639;SDS011;19049;52.524;11.468;2023-02-28T03:11:35;1.53;;;0.63;;
32639;SDS011;19049;52.524;11.468;2023-02-28T03:14:09;0.68;;;0.50;;
32639;SDS011;19049;52.524;11.468;2023-02-28T03:27:41;1.05;;;0.30;;
32639;SDS011;19049;52.524;11.468;2023-02-28T03:30:13;1.08;;;0.50;;
32639;SDS011;19049;52.524;11.468;2023-02-28T03:33:00;1.08;;;0.50;;
32639;SDS011;19049;52.524;11.468;2023-02-28T03:35:34;1.67;;;0.77;;
32639;SDS011;19049;52.524;11.468;2023-02-28T03:38:25;0.70;;;0.45;;
32639;SDS011;19049;52.524;11.468;2023-02-28T03:41:22;0.85;;;0.60;;
32639;SDS011;19049;52.524;11.468;2023-02-28T03:44:03;1.20;;;0.60;;
32639;SDS011;19049;52.524;11.468;2023-02-28T03:46:34;0.98;;;0.60;;
32639;SDS011;19049;52.524;11.468;2023-02-28T03:49:14;0.98;;;0.45;;
32639;SDS011;19049;52.524;11.468;2023-02-28T03:51:47;1.08;;;0.60;;
32639;SDS011;19049;52.524;11.468;2023-02-28T03:54:15;0.68;;;0.57;;
32639;SDS011;19049;52.524;11.468;2023-02-28T03:56:59;1.23;;;0.50;;
32639;SDS011;19049;52.524;11.468;2023-02-28T03:59:49;1.17;;;0.50;;
32639;SDS011;19049;52.524;11.468;2023-02-28T04:02:24;1.20;;;0.50;;
32639;SDS011;19049;52.524;11.468;2023-02-28T04:04:52;0.90;;;0.63;;
32639;SDS011;19049;52.524;11.468;2023-02-28T04:07:17;0.90;;;0.60;;
32639;SDS011;19049;52.524;11.468;2023-02-28T04:09:43;0.30;;;0.30;;
32639;SDS011;19049;52.524;11.468;2023-02-28T04:12:09;1.17;;;0.57;;
32639;SDS011;19049;52.524;11.468;2023-02-28T04:14:35;0.35;;;0.30;;
32639;SDS011;19049;52.524;11.468;2023-02-28T04:17:01;1.70;;;0.80;;
32639;SDS011;19049;52.524;11.468;2023-02-28T04:19:27;1.67;;;0.60;;
32639;SDS011;19049;52.524;11.468;2023-02-28T04:21:52;1.23;;;0.60;;
32639;SDS011;19049;52.524;11.468;2023-02-28T04:24:20;1.50;;;0.63;;
32639;SDS011;19049;52.524;11.468;2023-02-28T04:26:48;1.73;;;0.60;;
32639;SDS011;19049;52.524;11.468;2023-02-28T04:29:24;0.95;;;0.60;;
32639;SDS011;19049;52.524;11.468;2023-02-28T04:31:54;0.93;;;0.40;;
32639;SDS011;19049;52.524;11.468;2023-02-28T04:34:22;0.70;;;0.50;;
32639;SDS011;19049;52.524;11.468;2023-02-28T04:36:49;0.88;;;0.60;;
32639;SDS011;19049;52.524;11.468;2023-02-28T04:39:16;1.50;;;0.68;;
32639;SDS011;19049;52.524;11.468;2023-02-28T04:41:43;0.75;;;0.40;;
32639;SDS011;19049;52.524;11.468;2023-02-28T04:44:09;1.77;;;0.50;;
32639;SDS011;19049;52.524;11.468;2023-02-28T04:46:35;1.63;;;0.80;;
32639;SDS011;19049;52.524;11.468;2023-02-28T04:49:01;0.70;;;0.60;;
32639;SDS011;19049;52.524;11.468;2023-02-28T04:51:27;1.13;;;0.60;;
32639;SDS011;19049;52.524;11.468;2023-02-28T04:53:53;1.53;;;0.77;;
32639;SDS011;19049;52.524;11.468;2023-02-28T04:56:19;1.58;;;0.57;;
32639;SDS011;19049;52.524;11.468;2023-02-28T04:58:45;2.03;;;0.73;;
32639;SDS011;19049;52.524;11.468;2023-02-28T05:01:18;1.02;;;0.60;;
32639;SDS011;19049;52.524;11.468;2023-02-28T05:03:44;1.17;;;0.60;;
32639;SDS011;19049;52.524;11.468;2023-02-28T05:06:10;1.47;;;0.60;;
32639;SDS011;19049;52.524;11.468;2023-02-28T05:08:36;0.95;;;0.60;;
32639;SDS011;19049;52.524;11.468;2023-02-28T05:11:05;1.63;;;0.60;;
32639;SDS011;19049;52.524;11.468;2023-02-28T05:13:33;0.93;;;0.68;;
32639;SDS011;19049;52.524;11.468;2023-02-28T05:16:01;1.52;;;0.68;;
32639;SDS011;19049;52.524;11.468;2023-02-28T05:18:27;1.37;;;0.60;;
32639;SDS011;19049;52.524;11.468;2023-02-28T05:20:52;1.40;;;0.80;;
32639;SDS011;19049;52.524;11.468;2023-02-28T05:23:18;4.53;;;1.00;;
32639;SDS011;19049;52.524;11.468;2023-02-28T05:25:46;1.65;;;0.90;;
32639;SDS011;19049;52.524;11.468;2023-02-28T05:28:12;1.55;;;0.80;;
32639;SDS011;19049;52.524;11.468;2023-02-28T05:30:38;1.50;;;0.70;;
32639;SDS011;19049;52.524;11.468;2023-02-28T05:33:03;0.97;;;0.70;;
32639;SDS011;19049;52.524;11.468;2023-02-28T05:35:29;1.47;;;0.73;;
32639;SDS011;19049;52.524;11.468;2023-02-28T05:37:54;1.93;;;0.70;;
32639;SDS011;19049;52.524;11.468;2023-02-28T05:40:20;0.83;;;0.50;;
32639;SDS011;19049;52.524;11.468;2023-02-28T05:42:46;1.23;;;0.70;;
32639;SDS011;19049;52.524;11.468;2023-02-28T05:45:11;0.73;;;0.60;;
32639;SDS011;19049;52.524;11.468;2023-02-28T05:47:37;1.17;;;0.70;;
32639;SDS011;19049;52.524;11.468;2023-02-28T05:50:03;1.40;;;0.67;;
32639;SDS011;19049;52.524;11.468;2023-02-28T05:52:32;2.20;;;0.90;;
32639;SDS011;19049;52.524;11.468;2023-02-28T05:54:58;1.30;;;0.63;;
32639;SDS011;19049;52.524;11.468;2023-02-28T05:57:24;1.37;;;0.70;;
32639;SDS011;19049;52.524;11.468;2023-02-28T05:59:49;1.07;;;0.70;;
32639;SDS011;19049;52.524;11.468;2023-02-28T06:02:16;1.63;;;0.85;;
32639;SDS011;19049;52.524;11.468;2023-02-28T06:04:43;2.35;;;0.80;;
32639;SDS011;19049;52.524;11.468;2023-02-28T06:07:09;1.48;;;0.82;;
32639;SDS011;19049;52.524;11.468;2023-02-28T06:09:35;1.65;;;0.65;;
32639;SDS011;19049;52.524;11.468;2023-02-28T06:12:02;0.95;;;0.70;;
32639;SDS011;19049;52.524;11.468;2023-02-28T06:14:30;4.85;;;1.08;;
32639;SDS011;19049;52.524;11.468;2023-02-28T06:16:58;1.75;;;0.90;;
32639;SDS011;19049;52.524;11.468;2023-02-28T06:19:24;0.57;;;0.40;;
32639;SDS011;19049;52.524;11.468;2023-02-28T06:21:54;1.35;;;0.82;;
32639;SDS011;19049;52.524;11.468;2023-02-28T06:24:20;1.13;;;0.57;;
32639;SDS011;19049;52.524;11.468;2023-02-28T06:26:47;0.80;;;0.57;;
32639;SDS011;19049;52.524;11.468;2023-02-28T06:29:14;1.40;;;0.73;;
32639;SDS011;19049;52.524;11.468;2023-02-28T06:31:52;2.05;;;0.93;;
32639;SDS011;19049;52.524;11.468;2023-02-28T06:34:18;1.13;;;0.75;;
32639;SDS011;19049;52.524;11.468;2023-02-28T06:36:43;1.20;;;0.60;;
32639;SDS011;19049;52.524;11.468;2023-02-28T06:39:09;2.13;;;0.82;;
32639;SDS011;19049;52.524;11.468;2023-02-28T06:41:35;4.43;;;0.70;;
32639;SDS011;19049;52.524;11.468;2023-02-28T06:44:10;1.40;;;0.85;;
32639;SDS011;19049;52.524;11.468;2023-02-28T06:46:38;1.52;;;0.80;;
32639;SDS011;19049;52.524;11.468;2023-02-28T06:49:05;1.53;;;0.70;;
32639;SDS011;19049;52.524;11.468;2023-02-28T06:51:33;1.88;;;1.00;;
32639;SDS011;19049;52.524;11.468;2023-02-28T06:53:59;3.30;;;0.90;;
32639;SDS011;19049;52.524;11.468;2023-02-28T06:56:25;1.00;;;0.83;;
32639;SDS011;19049;52.524;11.468;2023-02-28T06:58:50;1.30;;;0.90;;
32639;SDS011;19049;52.524;11.468;2023-02-28T07:01:18;0.90;;;0.57;;
32639;SDS011;19049;52.524;11.468;2023-02-28T07:03:44;1.37;;;0.83;;
32639;SDS011;19049;52.524;11.468;2023-02-28T07:06:10;1.47;;;0.90;;
32639;SDS011;19049;52.524;11.468;2023-02-28T07:08:36;1.27;;;0.70;;
32639;SDS011;19049;52.524;11.468;2023-02-28T07:11:04;1.00;;;0.80;;
32639;SDS011;19049;52.524;11.468;2023-02-28T07:13:30;1.63;;;1.03;;
32639;SDS011;19049;52.524;11.468;2023-02-28T07:16:00;1.80;;;1.00;;
32639;SDS011;19049;52.524;11.468;2023-02-28T07:18:28;1.70;;;0.93;;
32639;SDS011;19049;52.524;11.468;2023-02-28T07:20:55;1.10;;;0.70;;
32639;SDS011;19049;52.524;11.468;2023-02-28T07:23:21;1.20;;;1.10;;
32639;SDS011;19049;52.524;11.468;2023-02-28T07:25:47;2.90;;;1.47;;
32639;SDS011;19049;52.524;11.468;2023-02-28T07:28:15;3.10;;;1.80;;
32639;SDS011;19049;52.524;11.468;2023-02-28T07:30:41;2.83;;;1.70;;
32639;SDS011;19049;52.524;11.468;2023-02-28T07:33:07;3.37;;;2.20;;
32639;SDS011;19049;52.524;11.468;2023-02-28T07:35:32;5.10;;;3.47;;
32639;SDS011;19049;52.524;11.468;2023-02-28T07:37:58;4.53;;;3.17;;
32639;SDS011;19049;52.524;11.468;2023-02-28T07:40:24;4.80;;;2.93;;
32639;SDS011;19049;52.524;11.468;2023-02-28T07:42:50;4.90;;;3.43;;
32639;SDS011;19049;52.524;11.468;2023-02-28T07:45:17;5.37;;;3.53;;
32639;SDS011;19049;52.524;11.468;2023-02-28T07:47:43;8.07;;;4.40;;
32639;SDS011;19049;52.524;11.468;2023-02-28T07:50:10;6.63;;;4.50;;
32639;SDS011;19049;52.524;11.468;2023-02-28T07:52:37;6.60;;;4.50;;
32639;SDS011;19049;52.524;11.468;2023-02-28T07:55:04;6.60;;;4.40;;
32639;SDS011;19049;52.524;11.468;2023-02-28T07:57:31;7.33;;;4.80;;
32639;SDS011;19049;52.524;11.468;2023-02-28T07:59:57;7.40;;;4.73;;
32639;SDS011;19049;52.524;11.468;2023-02-28T08:02:23;8.63;;;4.97;;
32639;SDS011;19049;52.524;11.468;2023-02-28T08:04:49;8.60;;;4.90;;
32639;SDS011;19049;52.524;11.468;2023-02-28T08:07:16;6.93;;;4.63;;
32639;SDS011;19049;52.524;11.468;2023-02-28T08:09:44;7.97;;;5.17;;
32639;SDS011;19049;52.524;11.468;2023-02-28T08:12:10;5.40;;;3.67;;
32639;SDS011;19049;52.524;11.468;2023-02-28T08:14:37;4.77;;;3.30;;
32639;SDS011;19049;52.524;11.468;2023-02-28T08:17:04;4.33;;;3.27;;
32639;SDS011;19049;52.524;11.468;2023-02-28T08:19:30;4.50;;;3.13;;
32639;SDS011;19049;52.524;11.468;2023-02-28T08:21:56;4.43;;;2.97;;
32639;SDS011;19049;52.524;11.468;2023-02-28T08:24:22;4.57;;;3.30;;
32639;SDS011;19049;52.524;11.468;2023-02-28T08:26:48;3.47;;;2.73;;
32639;SDS011;19049;52.524;11.468;2023-02-28T08:29:14;4.43;;;3.20;;
32639;SDS011;19049;52.524;11.468;2023-02-28T08:31:41;4.13;;;3.10;;
32639;SDS011;19049;52.524;11.468;2023-02-28T08:34:10;3.60;;;2.97;;
32639;SDS011;19049;52.524;11.468;2023-02-28T08:36:38;3.63;;;2.57;;
32639;SDS011;19049;52.524;11.468;2023-02-28T08:39:04;3.67;;;2.90;;
32639;SDS011;19049;52.524;11.468;2023-02-28T08:41:30;3.40;;;2.47;;
32639;SDS011;19049;52.524;11.468;2023-02-28T08:43:56;4.17;;;2.33;;
32639;SDS011;19049;52.524;11.468;2023-02-28T08:46:23;4.33;;;2.50;;
32639;SDS011;19049;52.524;11.468;2023-02-28T08:48:51;5.13;;;2.43;;
32639;SDS011;19049;52.524;11.468;2023-02-28T08:51:18;3.43;;;2.33;;
32639;SDS011;19049;52.524;11.468;2023-02-28T08:53:50;2.90;;;2.40;;
32639;SDS011;19049;52.524;11.468;2023-02-28T08:56:16;2.83;;;2.20;;
32639;SDS011;19049;52.524;11.468;2023-02-28T08:58:43;3.30;;;2.50;;
32639;SDS011;19049;52.524;11.468;2023-02-28T09:01:20;2.97;;;2.20;;
32639;SDS011;19049;52.524;11.468;2023-02-28T09:03:48;3.03;;;1.97;;
32639;SDS011;19049;52.524;11.468;2023-02-28T09:06:15;3.33;;;2.20;;
32639;SDS011;19049;52.524;11.468;2023-02-28T09:08:42;3.03;;;2.17;;
32639;SDS011;19049;52.524;11.468;2023-02-28T09:11:08;3.13;;;2.30;;
32639;SDS011;19049;52.524;11.468;2023-02-28T09:13:35;3.80;;;2.30;;
32639;SDS011;19049;52.524;11.468;2023-02-28T09:16:02;3.73;;;2.40;;
32639;SDS011;19049;52.524;11.468;2023-02-28T09:18:29;4.27;;;2.60;;
32639;SDS011;19049;52.524;11.468;2023-02-28T09:20:58;3.40;;;2.30;;
32639;SDS011;19049;52.524;11.468;2023-02-28T09:23:24;6.07;;;2.30;;
32639;SDS011;19049;52.524;11.468;2023-02-28T09:25:50;3.33;;;2.20;;
32639;SDS011;19049;52.524;11.468;2023-02-28T09:28:17;4.03;;;2.77;;
32639;SDS011;19049;52.524;11.468;2023-02-28T09:30:44;3.67;;;2.53;;
32639;SDS011;19049;52.524;11.468;2023-02-28T09:33:11;2.57;;;2.07;;
32639;SDS011;19049;52.524;11.468;2023-02-28T09:35:38;2.77;;;2.20;;
32639;SDS011;19049;52.524;11.468;2023-02-28T09:38:04;3.10;;;2.13;;
32639;SDS011;19049;52.524;11.468;2023-02-28T09:40:30;2.67;;;2.03;;
32639;SDS011;19049;52.524;11.468;2023-02-28T09:42:56;4.87;;;2.60;;
32639;SDS011;19049;52.524;11.468;2023-02-28T09:45:28;4.67;;;1.97;;
32639;SDS011;19049;52.524;11.468;2023-02-28T09:48:12;2.67;;;2.23;;
32639;SDS011;19049;52.524;11.468;2023-02-28T09:50:50;3.50;;;2.20;;
32639;SDS011;19049;52.524;11.468;2023-02-28T09:58:34;4.90;;;2.37;;
32639;SDS011;19049;52.524;11.468;2023-02-28T10:01:20;2.67;;;2.07;;
32639;SDS011;19049;52.524;11.468;2023-02-28T10:03:55;2.70;;;1.70;;
32639;SDS011;19049;52.524;11.468;2023-02-28T10:06:32;4.43;;;2.13;;
32639;SDS011;19049;52.524;11.468;2023-02-28T10:09:29;2.57;;;1.80;;
32639;SDS011;19049;52.524;11.468;2023-02-28T10:12:02;2.90;;;2.00;;
32639;SDS011;19049;52.524;11.468;2023-02-28T10:14:30;2.07;;;1.80;;
32639;SDS011;19049;52.524;11.468;2023-02-28T10:22:27;2.53;;;1.70;;
32639;SDS011;19049;52.524;11.468;2023-02-28T10:24:55;2.50;;;1.40;;
32639;SDS011;19049;52.524;11.468;2023-02-28T10:27:26;2.60;;;1.30;;
32639;SDS011;19049;52.524;11.468;2023-02-28T10:29:56;3.13;;;1.50;;
32639;SDS011;19049;52.524;11.468;2023-02-28T10:32:31;1.50;;;1.33;;
32639;SDS011;19049;52.524;11.468;2023-02-28T10:35:22;2.40;;;1.80;;
32639;SDS011;19049;52.524;11.468;2023-02-28T10:37:52;1.53;;;1.40;;
32639;SDS011;19049;52.524;11.468;2023-02-28T10:42:55;4.77;;;2.17;;
32639;SDS011;19049;52.524;11.468;2023-02-28T10:45:26;3.90;;;2.30;;
32639;SDS011;19049;52.524;11.468;2023-02-28T10:50:39;4.23;;;1.73;;
32639;SDS011;19049;52.524;11.468;2023-02-28T10:56:23;2.37;;;0.93;;
32639;SDS011;19049;52.524;11.468;2023-02-28T11:01:37;2.07;;;1.50;;
32639;SDS011;19049;52.524;11.468;2023-02-28T11:04:00;2.07;;;1.00;;
32639;SDS011;19049;52.524;11.468;2023-02-28T11:06:28;1.17;;;0.80;;
32639;SDS011;19049;52.524;11.468;2023-02-28T11:08:56;1.77;;;1.20;;
32639;SDS011;19049;52.524;11.468;2023-02-28T11:11:25;2.07;;;1.10;;
32639;SDS011;19049;52.524;11.468;2023-02-28T11:13:53;2.67;;;1.13;;
32639;SDS011;19049;52.524;11.468;2023-02-28T11:16:22;1.30;;;0.73;;
32639;SDS011;19049;52.524;11.468;2023-02-28T11:18:58;1.00;;;0.87;;
32639;SDS011;19049;52.524;11.468;2023-02-28T11:21:32;1.20;;;0.90;;
32639;SDS011;19049;52.524;11.468;2023-02-28T11:26:58;1.50;;;0.90;;
32639;SDS011;19049;52.524;11.468;2023-02-28T11:29:28;1.13;;;0.77;;
32639;SDS011;19049;52.524;11.468;2023-02-28T11:34:34;3.07;;;1.00;;
32639;SDS011;19049;52.524;11.468;2023-02-28T11:37:01;2.10;;;0.90;;
32639;SDS011;19049;52.524;11.468;2023-02-28T11:39:30;2.10;;;1.03;;
32639;SDS011;19049;52.524;11.468;2023-02-28T11:42:03;1.83;;;1.07;;
32639;SDS011;19049;52.524;11.468;2023-02-28T11:44:43;2.13;;;1.43;;
32639;SDS011;19049;52.524;11.468;2023-02-28T11:50:20;1.30;;;0.87;;
32639;SDS011;19049;52.524;11.468;2023-02-28T11:53:00;1.87;;;1.10;;
32639;SDS011;19049;52.524;11.468;2023-02-28T11:58:13;1.50;;;1.10;;
32639;SDS011;19049;52.524;11.468;2023-02-28T12:12:39;2.10;;;1.43;;
32639;SDS011;19049;52.524;11.468;2023-02-28T12:21:20;1.57;;;1.40;;
32639;SDS011;19049;52.524;11.468;2023-02-28T12:26:59;1.70;;;1.43;;
32639;SDS011;19049;52.524;11.468;2023-02-28T12:29:29;1.73;;;1.37;;
32639;SDS011;19049;52.524;11.468;2023-02-28T12:32:16;1.77;;;1.30;;
32639;SDS011;19049;52.524;11.468;2023-02-28T12:34:51;2.70;;;1.70;;
32639;SDS011;19049;52.524;11.468;2023-02-28T12:37:31;2.70;;;1.53;;
32639;SDS011;19049;52.524;11.468;2023-02-28T12:40:18;2.70;;;1.60;;
32639;SDS011;19049;52.524;11.468;2023-02-28T12:42:47;2.20;;;1.70;;
32639;SDS011;19049;52.524;11.468;2023-02-28T12:45:19;1.60;;;1.50;;
32639;SDS011;19049;52.524;11.468;2023-02-28T12:47:48;2.20;;;1.80;;
32639;SDS011;19049;52.524;11.468;2023-02-28T12:50:20;2.97;;;2.00;;
32639;SDS011;19049;52.524;11.468;2023-02-28T12:58:08;3.97;;;1.83;;
32639;SDS011;19049;52.524;11.468;2023-02-28T13:06:33;2.47;;;1.60;;
32639;SDS011;19049;52.524;11.468;2023-02-28T13:09:14;2.00;;;1.50;;
32639;SDS011;19049;52.524;11.468;2023-02-28T13:14:22;2.27;;;1.37;;
32639;SDS011;19049;52.524;11.468;2023-02-28T13:19:28;2.10;;;1.30;;
32639;SDS011;19049;52.524;11.468;2023-02-28T13:21:56;1.73;;;1.50;;
32639;SDS011;19049;52.524;11.468;2023-02-28T13:24:40;2.57;;;1.30;;
32639;SDS011;19049;52.524;11.468;2023-02-28T13:29:36;1.63;;;1.00;;
32639;SDS011;19049;52.524;11.468;2023-02-28T13:34:34;2.10;;;1.43;;
32639;SDS011;19049;52.524;11.468;2023-02-28T13:39:51;1.83;;;1.30;;
32639;SDS011;19049;52.524;11.468;2023-02-28T13:45:30;2.83;;;1.57;;
32639;SDS011;19049;52.524;11.468;2023-02-28T13:47:40;1.87;;;1.50;;
32639;SDS011;19049;52.524;11.468;2023-02-28T13:50:16;1.53;;;1.27;;
32639;SDS011;19049;52.524;11.468;2023-02-28T13:55:26;1.83;;;1.30;;
32639;SDS011;19049;52.524;11.468;2023-02-28T13:58:07;1.47;;;1.20;;
32639;SDS011;19049;52.524;11.468;2023-02-28T14:03:52;1.53;;;1.13;;
32639;SDS011;19049;52.524;11.468;2023-02-28T14:06:31;1.37;;;1.20;;
32639;SDS011;19049;52.524;11.468;2023-02-28T14:11:38;2.23;;;1.43;;
32639;SDS011;19049;52.524;11.468;2023-02-28T14:14:08;1.30;;;1.00;;
32639;SDS011;19049;52.524;11.468;2023-02-28T14:16:54;2.47;;;1.43;;
32639;SDS011;19049;52.524;11.468;2023-02-28T14:19:25;1.43;;;1.10;;
32639;SDS011;19049;52.524;11.468;2023-02-28T14:22:03;2.10;;;1.30;;
32639;SDS011;19049;52.524;11.468;2023-02-28T14:33:23;1.60;;;1.20;;
32639;SDS011;19049;52.524;11.468;2023-02-28T14:36:01;1.77;;;1.20;;
32639;SDS011;19049;52.524;11.468;2023-02-28T14:38:42;1.23;;;1.10;;
32639;SDS011;19049;52.524;11.468;2023-02-28T14:41:55;2.70;;;1.20;;
32639;SDS011;19049;52.524;11.468;2023-02-28T14:46:50;1.63;;;1.30;;
32639;SDS011;19049;52.524;11.468;2023-02-28T14:49:20;2.83;;;1.60;;
32639;SDS011;19049;52.524;11.468;2023-02-28T14:52:03;2.70;;;1.30;;
32639;SDS011;19049;52.524;11.468;2023-02-28T14:54:31;2.47;;;1.90;;
32639;SDS011;19049;52.524;11.468;2023-02-28T14:56:57;2.27;;;1.50;;
32639;SDS011;19049;52.524;11.468;2023-02-28T14:59:33;2.57;;;1.50;;
32639;SDS011;19049;52.524;11.468;2023-02-28T15:02:20;6.07;;;3.13;;
32639;SDS011;19049;52.524;11.468;2023-02-28T15:04:58;2.97;;;2.13;;
32639;SDS011;19049;52.524;11.468;2023-02-28T15:08:12;8.03;;;4.40;;
32639;SDS011;19049;52.524;11.468;2023-02-28T15:10:41;2.50;;;1.80;;
32639;SDS011;19049;52.524;11.468;2023-02-28T15:13:13;2.57;;;1.93;;
32639;SDS011;19049;52.524;11.468;2023-02-28T15:15:41;5.83;;;3.80;;
32639;SDS011;19049;52.524;11.468;2023-02-28T15:18:10;2.70;;;1.93;;
32639;SDS011;19049;52.524;11.468;2023-02-28T15:20:51;2.40;;;1.30;;
32639;SDS011;19049;52.524;11.468;2023-02-28T15:23:20;1.60;;;1.33;;
32639;SDS011;19049;52.524;11.468;2023-02-28T15:25:47;2.23;;;1.87;;
32639;SDS011;19049;52.524;11.468;2023-02-28T15:28:16;1.60;;;1.50;;
32639;SDS011;19049;52.524;11.468;2023-02-28T15:30:57;2.10;;;1.30;;
32639;SDS011;19049;52.524;11.468;2023-02-28T15:33:29;2.23;;;0.97;;
32639;SDS011;19049;52.524;11.468;2023-02-28T15:36:13;2.10;;;1.30;;
32639;SDS011;19049;52.524;11.468;2023-02-28T15:38:42;1.40;;;1.10;;
32639;SDS011;19049;52.524;11.468;2023-02-28T15:41:25;2.03;;;1.60;;
32639;SDS011;19049;52.524;11.468;2023-02-28T15:46:41;5.93;;;3.93;;
32639;SDS011;19049;52.524;11.468;2023-02-28T15:49:19;5.93;;;4.20;;
32639;SDS011;19049;52.524;11.468;2023-02-28T15:51:46;3.80;;;2.80;;
32639;SDS011;19049;52.524;11.468;2023-02-28T15:54:18;1.90;;;1.60;;
32639;SDS011;19049;52.524;11.468;2023-02-28T15:56:49;2.60;;;1.70;;
32639;SDS011;19049;52.524;11.468;2023-02-28T15:59:18;2.00;;;1.50;;
32639;SDS011;19049;52.524;11.468;2023-02-28T16:02:02;2.43;;;1.70;;
32639;SDS011;19049;52.524;11.468;2023-02-28T16:07:31;2.37;;;1.70;;
32639;SDS011;19049;52.524;11.468;2023-02-28T16:09:57;2.33;;;1.70;;
32639;SDS011;19049;52.524;11.468;2023-02-28T16:12:26;2.70;;;1.70;;
32639;SDS011;19049;52.524;11.468;2023-02-28T16:14:57;2.70;;;2.00;;
32639;SDS011;19049;52.524;11.468;2023-02-28T16:17:28;1.73;;;1.30;;
32639;SDS011;19049;52.524;11.468;2023-02-28T16:19:56;1.70;;;1.43;;
32639;SDS011;19049;52.524;11.468;2023-02-28T16:22:23;1.67;;;1.40;;
32639;SDS011;19049;52.524;11.468;2023-02-28T16:24:49;2.47;;;1.80;;
32639;SDS011;19049;52.524;11.468;2023-02-28T16:27:36;1.50;;;1.40;;
32639;SDS011;19049;52.524;11.468;2023-02-28T16:30:02;1.97;;;1.40;;
32639;SDS011;19049;52.524;11.468;2023-02-28T16:32:32;2.70;;;1.77;;
32639;SDS011;19049;52.524;11.468;2023-02-28T16:35:01;4.10;;;2.93;;
32639;SDS011;19049;52.524;11.468;2023-02-28T16:37:27;3.97;;;3.07;;
32639;SDS011;19049;52.524;11.468;2023-02-28T16:39:53;4.57;;;3.50;;
32639;SDS011;19049;52.524;11.468;2023-02-28T16:42:24;6.50;;;5.10;;
32639;SDS011;19049;52.524;11.468;2023-02-28T16:44:52;2.97;;;2.47;;
32639;SDS011;19049;52.524;11.468;2023-02-28T16:47:18;3.43;;;2.40;;
32639;SDS011;19049;52.524;11.468;2023-02-28T16:49:45;2.93;;;1.70;;
32639;SDS011;19049;52.524;11.468;2023-02-28T16:52:12;1.57;;;1.40;;
32639;SDS011;19049;52.524;11.468;2023-02-28T16:54:38;2.50;;;1.00;;
32639;SDS011;19049;52.524;11.468;2023-02-28T16:57:04;1.37;;;1.03;;
32639;SDS011;19049;52.524;11.468;2023-02-28T16:59:31;1.00;;;0.90;;
32639;SDS011;19049;52.524;11.468;2023-02-28T17:01:57;1.53;;;0.77;;
32639;SDS011;19049;52.524;11.468;2023-02-28T17:04:24;1.23;;;0.80;;
32639;SDS011;19049;52.524;11.468;2023-02-28T17:06:51;1.37;;;0.97;;
32639;SDS011;19049;52.524;11.468;2023-02-28T17:09:18;1.60;;;1.07;;
32639;SDS011;19049;52.524;11.468;2023-02-28T17:11:45;1.13;;;1.00;;